sensor_id;sensor_type;location;lat;lon;timestamp;P1;durP1;ratioP1;P2;durP2;ratioP2
14001;SDS011;7076;51.280;12.584;2023-03-04T00:01:10;6.13;;;4.17;;
14001;SDS011;7076;51.280;12.584;2023-03-04T00:06:13;5.40;;;3.67;;
14001;SDS011;7076;51.280;12.584;2023-03-04T00:11:17;7.67;;;4.73;;
14001;SDS011;7076;51.280;12.584;2023-03-04T00:16:19;7.20;;;4.40;;
14001;SDS011;7076;51.280;12.584;2023-03-04T00:21:22;8.10;;;5.63;;
14001;SDS011;7076;51.280;12.584;2023-03-04T00:26:27;9.77;;;5.70;;
14001;SDS011;7076;51.280;12.584;2023-03-04T00:31:29;7.93;;;4.83;;
14001;SDS011;7076;51.280;12.584;2023-03-04T00:36:32;7.80;;;4.63;;
14001;SDS011;7076;51.280;12.584;2023-03-04T00:41:36;8.63;;;4.97;;
14001;SDS011;7076;51.280;12.584;2023-03-04T00:46:39;9.93;;;5.63;;
14001;SDS011;7076;51.280;12.584;2023-03-04T00:51:42;7.13;;;5.03;;
14001;SDS011;7076;51.280;12.584;2023-03-04T00:56:46;9.03;;;5.67;;
14001;SDS011;7076;51.280;12.584;2023-03-04T01:01:49;11.90;;;6.40;;
14001;SDS011;7076;51.280;12.584;2023-03-04T01:06:52;11.03;;;6.13;;
14001;SDS011;7076;51.280;12.584;2023-03-04T01:11:56;7.83;;;5.20;;
14001;SDS011;7076;51.280;12.584;2023-03-04T01:16:59;12.73;;;6.73;;
14001;SDS011;7076;51.280;12.584;2023-03-04T01:22:01;11.83;;;6.70;;
14001;SDS011;7076;51.280;12.584;2023-03-04T01:27:05;10.43;;;5.90;;
14001;SDS011;7076;51.280;12.584;2023-03-04T01:32:08;10.23;;;6.63;;
14001;SDS011;7076;51.280;12.584;2023-03-04T01:37:11;7.90;;;5.33;;
14001;SDS011;7076;51.280;12.584;2023-03-04T01:42:17;8.67;;;5.60;;
14001;SDS011;7076;51.280;12.584;2023-03-04T01:47:21;9.07;;;5.47;;
14001;SDS011;7076;51.280;12.584;2023-03-04T01:52:26;10.83;;;5.77;;
14001;SDS011;7076;51.280;12.584;2023-03-04T01:57:32;10.63;;;5.93;;
14001;SDS011;7076;51.280;12.584;2023-03-04T02:02:36;10.63;;;5.90;;
14001;SDS011;7076;51.280;12.584;2023-03-04T02:07:39;9.93;;;5.83;;
14001;SDS011;7076;51.280;12.584;2023-03-04T02:12:44;10.10;;;5.53;;
14001;SDS011;7076;51.280;12.584;2023-03-04T02:17:47;9.80;;;5.67;;
14001;SDS011;7076;51.280;12.584;2023-03-04T02:22:53;11.53;;;5.73;;
14001;SDS011;7076;51.280;12.584;2023-03-04T02:28:01;10.87;;;6.10;;
14001;SDS011;7076;51.280;12.584;2023-03-04T02:33:04;9.40;;;5.30;;
14001;SDS011;7076;51.280;12.584;2023-03-04T02:38:08;8.37;;;5.10;;
14001;SDS011;7076;51.280;12.584;2023-03-04T02:43:13;9.60;;;6.23;;
14001;SDS011;7076;51.280;12.584;2023-03-04T02:48:17;8.90;;;5.50;;
14001;SDS011;7076;51.280;12.584;2023-03-04T02:53:22;9.43;;;5.97;;
14001;SDS011;7076;51.280;12.584;2023-03-04T02:58:27;8.43;;;5.80;;
14001;SDS011;7076;51.280;12.584;2023-03-04T03:03:31;12.07;;;6.50;;
14001;SDS011;7076;51.280;12.584;2023-03-04T03:08:36;9.67;;;6.10;;
14001;SDS011;7076;51.280;12.584;2023-03-04T03:13:40;10.03;;;5.80;;
14001;SDS011;7076;51.280;12.584;2023-03-04T03:18:43;14.77;;;5.90;;
14001;SDS011;7076;51.280;12.584;2023-03-04T03:23:46;11.13;;;6.40;;
14001;SDS011;7076;51.280;12.584;2023-03-04T03:28:50;12.43;;;5.97;;
14001;SDS011;7076;51.280;12.584;2023-03-04T03:33:54;10.57;;;6.23;;
14001;SDS011;7076;51.280;12.584;2023-03-04T03:38:57;8.60;;;5.70;;
14001;SDS011;7076;51.280;12.584;2023-03-04T03:44:01;9.23;;;5.83;;
14001;SDS011;7076;51.280;12.584;2023-03-04T03:49:04;9.50;;;6.47;;
14001;SDS011;7076;51.280;12.584;2023-03-04T03:54:07;12.07;;;6.17;;
14001;SDS011;7076;51.280;12.584;2023-03-04T03:59:11;10.80;;;5.83;;
14001;SDS011;7076;51.280;12.584;2023-03-04T04:04:14;11.53;;;6.23;;
14001;SDS011;7076;51.280;12.584;2023-03-04T04:09:16;11.27;;;6.20;;
14001;SDS011;7076;51.280;12.584;2023-03-04T04:14:21;11.80;;;6.57;;
14001;SDS011;7076;51.280;12.584;2023-03-04T04:19:23;10.10;;;6.20;;
14001;SDS011;7076;51.280;12.584;2023-03-04T04:24:26;12.77;;;6.33;;
14001;SDS011;7076;51.280;12.584;2023-03-04T04:29:30;13.47;;;6.63;;
14001;SDS011;7076;51.280;12.584;2023-03-04T04:34:34;9.20;;;5.20;;
14001;SDS011;7076;51.280;12.584;2023-03-04T04:39:37;10.60;;;5.70;;
14001;SDS011;7076;51.280;12.584;2023-03-04T04:44:41;12.13;;;6.40;;
14001;SDS011;7076;51.280;12.584;2023-03-04T04:49:43;11.33;;;6.27;;
14001;SDS011;7076;51.280;12.584;2023-03-04T04:54:46;12.60;;;5.87;;
14001;SDS011;7076;51.280;12.584;2023-03-04T04:59:50;11.53;;;5.83;;
14001;SDS011;7076;51.280;12.584;2023-03-04T05:04:53;11.23;;;5.87;;
14001;SDS011;7076;51.280;12.584;2023-03-04T05:09:56;10.50;;;5.57;;
14001;SDS011;7076;51.280;12.584;2023-03-04T05:15:00;13.20;;;5.80;;
14001;SDS011;7076;51.280;12.584;2023-03-04T05:20:03;9.37;;;5.67;;
14001;SDS011;7076;51.280;12.584;2023-03-04T05:25:07;9.60;;;5.07;;
14001;SDS011;7076;51.280;12.584;2023-03-04T05:30:12;12.80;;;5.93;;
14001;SDS011;7076;51.280;12.584;2023-03-04T05:35:15;14.97;;;5.40;;
14001;SDS011;7076;51.280;12.584;2023-03-04T05:40:18;15.03;;;6.10;;
14001;SDS011;7076;51.280;12.584;2023-03-04T05:45:22;8.90;;;5.07;;
14001;SDS011;7076;51.280;12.584;2023-03-04T05:50:25;10.23;;;5.43;;
14001;SDS011;7076;51.280;12.584;2023-03-04T05:55:29;9.13;;;5.00;;
14001;SDS011;7076;51.280;12.584;2023-03-04T06:00:33;9.33;;;5.23;;
14001;SDS011;7076;51.280;12.584;2023-03-04T06:05:35;13.53;;;5.27;;
14001;SDS011;7076;51.280;12.584;2023-03-04T06:10:38;9.30;;;5.03;;
14001;SDS011;7076;51.280;12.584;2023-03-04T06:15:43;9.07;;;4.93;;
14001;SDS011;7076;51.280;12.584;2023-03-04T06:20:46;17.23;;;4.70;;
14001;SDS011;7076;51.280;12.584;2023-03-04T06:25:50;11.47;;;4.43;;
14001;SDS011;7076;51.280;12.584;2023-03-04T06:30:55;10.53;;;5.07;;
14001;SDS011;7076;51.280;12.584;2023-03-04T06:35:58;17.00;;;5.20;;
14001;SDS011;7076;51.280;12.584;2023-03-04T06:41:05;7.63;;;4.43;;
14001;SDS011;7076;51.280;12.584;2023-03-04T06:46:10;9.17;;;5.07;;
14001;SDS011;7076;51.280;12.584;2023-03-04T06:51:12;7.83;;;4.37;;
14001;SDS011;7076;51.280;12.584;2023-03-04T06:56:15;7.27;;;4.33;;
14001;SDS011;7076;51.280;12.584;2023-03-04T07:01:20;5.63;;;4.10;;
14001;SDS011;7076;51.280;12.584;2023-03-04T07:06:25;9.07;;;4.10;;
14001;SDS011;7076;51.280;12.584;2023-03-04T07:11:28;10.10;;;4.00;;
14001;SDS011;7076;51.280;12.584;2023-03-04T07:16:33;9.77;;;4.13;;
14001;SDS011;7076;51.280;12.584;2023-03-04T07:21:35;7.40;;;3.87;;
14001;SDS011;7076;51.280;12.584;2023-03-04T07:26:39;8.17;;;4.20;;
14001;SDS011;7076;51.280;12.584;2023-03-04T07:31:43;12.30;;;4.40;;
14001;SDS011;7076;51.280;12.584;2023-03-04T07:36:46;7.53;;;3.53;;
14001;SDS011;7076;51.280;12.584;2023-03-04T07:41:48;12.30;;;4.30;;
14001;SDS011;7076;51.280;12.584;2023-03-04T07:46:52;10.67;;;4.07;;
14001;SDS011;7076;51.280;12.584;2023-03-04T07:51:55;10.40;;;3.73;;
14001;SDS011;7076;51.280;12.584;2023-03-04T07:56:58;8.30;;;3.80;;
14001;SDS011;7076;51.280;12.584;2023-03-04T08:02:02;6.50;;;3.73;;
14001;SDS011;7076;51.280;12.584;2023-03-04T08:07:05;7.07;;;3.10;;
14001;SDS011;7076;51.280;12.584;2023-03-04T08:12:08;8.00;;;3.20;;
14001;SDS011;7076;51.280;12.584;2023-03-04T08:17:12;8.73;;;2.90;;
14001;SDS011;7076;51.280;12.584;2023-03-04T08:22:16;8.30;;;3.50;;
14001;SDS011;7076;51.280;12.584;2023-03-04T08:27:18;8.03;;;2.93;;
14001;SDS011;7076;51.280;12.584;2023-03-04T08:32:22;7.13;;;3.20;;
14001;SDS011;7076;51.280;12.584;2023-03-04T08:37:25;6.50;;;2.77;;
14001;SDS011;7076;51.280;12.584;2023-03-04T08:42:28;7.70;;;2.87;;
14001;SDS011;7076;51.280;12.584;2023-03-04T08:47:32;11.23;;;3.27;;
14001;SDS011;7076;51.280;12.584;2023-03-04T08:52:35;7.20;;;2.70;;
14001;SDS011;7076;51.280;12.584;2023-03-04T08:57:38;6.80;;;2.63;;
14001;SDS011;7076;51.280;12.584;2023-03-04T09:02:42;6.03;;;2.40;;
14001;SDS011;7076;51.280;12.584;2023-03-04T09:07:45;4.90;;;2.80;;
14001;SDS011;7076;51.280;12.584;2023-03-04T09:12:48;5.37;;;2.37;;
14001;SDS011;7076;51.280;12.584;2023-03-04T09:17:53;4.07;;;1.83;;
14001;SDS011;7076;51.280;12.584;2023-03-04T09:22:55;5.30;;;1.90;;
14001;SDS011;7076;51.280;12.584;2023-03-04T09:27:58;7.87;;;2.13;;
14001;SDS011;7076;51.280;12.584;2023-03-04T09:33:02;4.10;;;2.20;;
14001;SDS011;7076;51.280;12.584;2023-03-04T09:38:06;7.03;;;2.33;;
14001;SDS011;7076;51.280;12.584;2023-03-04T09:43:11;4.17;;;2.23;;
14001;SDS011;7076;51.280;12.584;2023-03-04T09:48:21;5.60;;;2.23;;
14001;SDS011;7076;51.280;12.584;2023-03-04T09:53:27;4.90;;;2.13;;
14001;SDS011;7076;51.280;12.584;2023-03-04T09:58:40;7.20;;;2.30;;
14001;SDS011;7076;51.280;12.584;2023-03-04T10:03:48;6.20;;;2.57;;
14001;SDS011;7076;51.280;12.584;2023-03-04T10:08:54;7.30;;;2.40;;
14001;SDS011;7076;51.280;12.584;2023-03-04T10:14:01;6.13;;;2.37;;
14001;SDS011;7076;51.280;12.584;2023-03-04T10:19:20;4.53;;;2.20;;
14001;SDS011;7076;51.280;12.584;2023-03-04T10:24:26;2.97;;;1.80;;
14001;SDS011;7076;51.280;12.584;2023-03-04T10:29:30;6.10;;;2.53;;
14001;SDS011;7076;51.280;12.584;2023-03-04T10:34:35;3.60;;;2.03;;
14001;SDS011;7076;51.280;12.584;2023-03-04T10:39:39;6.03;;;2.07;;
14001;SDS011;7076;51.280;12.584;2023-03-04T10:44:43;3.43;;;1.50;;
14001;SDS011;7076;51.280;12.584;2023-03-04T10:49:54;6.07;;;1.70;;
14001;SDS011;7076;51.280;12.584;2023-03-04T10:54:58;4.07;;;1.50;;
14001;SDS011;7076;51.280;12.584;2023-03-04T11:00:03;3.50;;;1.80;;
14001;SDS011;7076;51.280;12.584;2023-03-04T11:05:25;3.27;;;1.73;;
14001;SDS011;7076;51.280;12.584;2023-03-04T11:10:29;2.70;;;1.40;;
14001;SDS011;7076;51.280;12.584;2023-03-04T11:15:47;3.30;;;1.40;;
14001;SDS011;7076;51.280;12.584;2023-03-04T11:20:53;3.90;;;1.23;;
14001;SDS011;7076;51.280;12.584;2023-03-04T11:25:57;5.57;;;1.53;;
14001;SDS011;7076;51.280;12.584;2023-03-04T11:31:03;2.77;;;1.37;;
14001;SDS011;7076;51.280;12.584;2023-03-04T11:36:16;1.70;;;1.50;;
14001;SDS011;7076;51.280;12.584;2023-03-04T11:41:25;2.43;;;1.20;;
14001;SDS011;7076;51.280;12.584;2023-03-04T11:46:38;2.33;;;1.33;;
14001;SDS011;7076;51.280;12.584;2023-03-04T11:51:58;1.57;;;1.10;;
14001;SDS011;7076;51.280;12.584;2023-03-04T11:57:08;1.40;;;1.20;;
14001;SDS011;7076;51.280;12.584;2023-03-04T12:02:16;2.00;;;1.20;;
14001;SDS011;7076;51.280;12.584;2023-03-04T12:07:26;2.90;;;1.40;;
14001;SDS011;7076;51.280;12.584;2023-03-04T12:12:48;2.10;;;1.50;;
14001;SDS011;7076;51.280;12.584;2023-03-04T12:18:01;1.20;;;1.03;;
14001;SDS011;7076;51.280;12.584;2023-03-04T12:23:21;2.07;;;1.10;;
14001;SDS011;7076;51.280;12.584;2023-03-04T12:28:36;2.77;;;1.37;;
14001;SDS011;7076;51.280;12.584;2023-03-04T12:33:47;4.27;;;1.90;;
14001;SDS011;7076;51.280;12.584;2023-03-04T12:38:59;2.40;;;1.27;;
14001;SDS011;7076;51.280;12.584;2023-03-04T12:44:17;2.77;;;1.43;;
14001;SDS011;7076;51.280;12.584;2023-03-04T12:49:27;4.37;;;1.53;;
14001;SDS011;7076;51.280;12.584;2023-03-04T12:54:38;5.37;;;1.80;;
14001;SDS011;7076;51.280;12.584;2023-03-04T12:59:43;2.77;;;1.63;;
14001;SDS011;7076;51.280;12.584;2023-03-04T13:04:49;1.90;;;1.23;;
14001;SDS011;7076;51.280;12.584;2023-03-04T13:09:57;2.83;;;1.53;;
14001;SDS011;7076;51.280;12.584;2023-03-04T13:15:26;2.83;;;1.70;;
14001;SDS011;7076;51.280;12.584;2023-03-04T13:20:37;3.37;;;2.20;;
14001;SDS011;7076;51.280;12.584;2023-03-04T13:25:42;2.40;;;1.47;;
14001;SDS011;7076;51.280;12.584;2023-03-04T13:36:26;3.33;;;1.50;;
14001;SDS011;7076;51.280;12.584;2023-03-04T13:42:01;1.50;;;1.10;;
14001;SDS011;7076;51.280;12.584;2023-03-04T13:47:08;2.00;;;1.30;;
14001;SDS011;7076;51.280;12.584;2023-03-04T13:52:36;3.58;;;1.30;;
14001;SDS011;7076;51.280;12.584;2023-03-04T13:57:48;1.33;;;1.20;;
14001;SDS011;7076;51.280;12.584;2023-03-04T14:02:51;4.50;;;1.33;;
14001;SDS011;7076;51.280;12.584;2023-03-04T14:07:54;3.23;;;1.47;;
14001;SDS011;7076;51.280;12.584;2023-03-04T14:12:58;6.60;;;2.00;;
14001;SDS011;7076;51.280;12.584;2023-03-04T14:18:02;4.40;;;1.70;;
14001;SDS011;7076;51.280;12.584;2023-03-04T14:23:21;5.60;;;1.73;;
14001;SDS011;7076;51.280;12.584;2023-03-04T14:28:26;5.07;;;1.73;;
14001;SDS011;7076;51.280;12.584;2023-03-04T14:33:29;5.80;;;2.10;;
14001;SDS011;7076;51.280;12.584;2023-03-04T14:38:33;1.77;;;1.40;;
14001;SDS011;7076;51.280;12.584;2023-03-04T14:43:40;4.27;;;2.07;;
14001;SDS011;7076;51.280;12.584;2023-03-04T14:48:47;4.90;;;1.87;;
14001;SDS011;7076;51.280;12.584;2023-03-04T14:53:54;4.97;;;1.75;;
14001;SDS011;7076;51.280;12.584;2023-03-04T14:58:59;4.87;;;2.20;;
14001;SDS011;7076;51.280;12.584;2023-03-04T15:04:03;4.03;;;2.27;;
14001;SDS011;7076;51.280;12.584;2023-03-04T15:09:15;2.93;;;1.97;;
14001;SDS011;7076;51.280;12.584;2023-03-04T15:14:40;3.50;;;2.03;;
14001;SDS011;7076;51.280;12.584;2023-03-04T15:19:44;3.40;;;1.80;;
14001;SDS011;7076;51.280;12.584;2023-03-04T15:24:47;7.00;;;1.87;;
14001;SDS011;7076;51.280;12.584;2023-03-04T15:29:52;3.30;;;1.50;;
14001;SDS011;7076;51.280;12.584;2023-03-04T15:34:59;3.40;;;1.40;;
14001;SDS011;7076;51.280;12.584;2023-03-04T15:40:02;2.80;;;1.60;;
14001;SDS011;7076;51.280;12.584;2023-03-04T15:45:11;1.73;;;1.00;;
14001;SDS011;7076;51.280;12.584;2023-03-04T15:50:25;3.37;;;1.00;;
14001;SDS011;7076;51.280;12.584;2023-03-04T15:55:29;1.40;;;0.70;;
14001;SDS011;7076;51.280;12.584;2023-03-04T16:00:36;1.73;;;0.70;;
14001;SDS011;7076;51.280;12.584;2023-03-04T16:05:39;2.00;;;0.70;;
14001;SDS011;7076;51.280;12.584;2023-03-04T16:10:42;2.07;;;1.00;;
14001;SDS011;7076;51.280;12.584;2023-03-04T16:15:46;2.23;;;0.90;;
14001;SDS011;7076;51.280;12.584;2023-03-04T16:20:50;3.03;;;0.80;;
14001;SDS011;7076;51.280;12.584;2023-03-04T16:25:54;4.53;;;1.13;;
14001;SDS011;7076;51.280;12.584;2023-03-04T16:30:59;3.00;;;1.10;;
14001;SDS011;7076;51.280;12.584;2023-03-04T16:36:02;2.50;;;1.00;;
14001;SDS011;7076;51.280;12.584;2023-03-04T16:41:08;6.67;;;1.23;;
14001;SDS011;7076;51.280;12.584;2023-03-04T16:46:14;4.30;;;1.10;;
14001;SDS011;7076;51.280;12.584;2023-03-04T16:51:18;2.00;;;0.67;;
14001;SDS011;7076;51.280;12.584;2023-03-04T16:56:22;3.33;;;0.80;;
14001;SDS011;7076;51.280;12.584;2023-03-04T17:01:27;2.63;;;0.70;;
14001;SDS011;7076;51.280;12.584;2023-03-04T17:06:30;2.80;;;0.97;;
14001;SDS011;7076;51.280;12.584;2023-03-04T17:11:34;1.27;;;0.70;;
14001;SDS011;7076;51.280;12.584;2023-03-04T17:16:39;4.40;;;0.90;;
14001;SDS011;7076;51.280;12.584;2023-03-04T17:21:41;2.53;;;0.90;;
14001;SDS011;7076;51.280;12.584;2023-03-04T17:26:44;2.13;;;0.90;;
14001;SDS011;7076;51.280;12.584;2023-03-04T17:31:48;2.80;;;1.40;;
14001;SDS011;7076;51.280;12.584;2023-03-04T17:36:51;2.93;;;1.33;;
14001;SDS011;7076;51.280;12.584;2023-03-04T17:41:59;3.83;;;1.10;;
14001;SDS011;7076;51.280;12.584;2023-03-04T17:47:03;4.83;;;0.97;;
14001;SDS011;7076;51.280;12.584;2023-03-04T17:52:06;5.00;;;1.03;;
14001;SDS011;7076;51.280;12.584;2023-03-04T17:57:09;1.47;;;0.80;;
14001;SDS011;7076;51.280;12.584;2023-03-04T18:02:14;4.37;;;1.03;;
14001;SDS011;7076;51.280;12.584;2023-03-04T18:07:17;1.90;;;0.83;;
14001;SDS011;7076;51.280;12.584;2023-03-04T18:12:20;6.97;;;2.10;;
14001;SDS011;7076;51.280;12.584;2023-03-04T18:17:24;4.37;;;1.33;;
14001;SDS011;7076;51.280;12.584;2023-03-04T18:22:28;3.83;;;1.30;;
14001;SDS011;7076;51.280;12.584;2023-03-04T18:27:32;2.97;;;0.80;;
14001;SDS011;7076;51.280;12.584;2023-03-04T18:32:36;1.50;;;1.00;;
14001;SDS011;7076;51.280;12.584;2023-03-04T18:37:52;5.10;;;0.90;;
14001;SDS011;7076;51.280;12.584;2023-03-04T18:42:55;2.03;;;0.93;;
14001;SDS011;7076;51.280;12.584;2023-03-04T18:48:01;4.67;;;1.30;;
14001;SDS011;7076;51.280;12.584;2023-03-04T18:53:04;5.83;;;1.17;;
14001;SDS011;7076;51.280;12.584;2023-03-04T18:58:07;2.47;;;1.00;;
14001;SDS011;7076;51.280;12.584;2023-03-04T19:03:11;3.57;;;1.30;;
14001;SDS011;7076;51.280;12.584;2023-03-04T19:08:15;5.63;;;1.50;;
14001;SDS011;7076;51.280;12.584;2023-03-04T19:13:18;5.67;;;1.40;;
14001;SDS011;7076;51.280;12.584;2023-03-04T19:18:24;6.50;;;1.43;;
14001;SDS011;7076;51.280;12.584;2023-03-04T19:23:27;7.33;;;1.93;;
14001;SDS011;7076;51.280;12.584;2023-03-04T19:28:30;6.30;;;1.50;;
14001;SDS011;7076;51.280;12.584;2023-03-04T19:33:35;5.53;;;1.37;;
14001;SDS011;7076;51.280;12.584;2023-03-04T19:38:38;4.97;;;1.30;;
14001;SDS011;7076;51.280;12.584;2023-03-04T19:43:41;7.00;;;1.53;;
14001;SDS011;7076;51.280;12.584;2023-03-04T19:48:47;7.17;;;1.43;;
14001;SDS011;7076;51.280;12.584;2023-03-04T19:53:50;4.93;;;1.40;;
14001;SDS011;7076;51.280;12.584;2023-03-04T19:58:55;3.70;;;1.00;;
14001;SDS011;7076;51.280;12.584;2023-03-04T20:04:00;4.33;;;1.20;;
14001;SDS011;7076;51.280;12.584;2023-03-04T20:09:04;4.30;;;1.33;;
14001;SDS011;7076;51.280;12.584;2023-03-04T20:14:07;4.13;;;1.23;;
14001;SDS011;7076;51.280;12.584;2023-03-04T20:19:11;4.73;;;1.13;;
14001;SDS011;7076;51.280;12.584;2023-03-04T20:24:14;5.20;;;1.10;;
14001;SDS011;7076;51.280;12.584;2023-03-04T20:29:19;7.23;;;1.70;;
14001;SDS011;7076;51.280;12.584;2023-03-04T20:34:23;3.47;;;1.30;;
14001;SDS011;7076;51.280;12.584;2023-03-04T20:39:27;4.90;;;1.27;;
14001;SDS011;7076;51.280;12.584;2023-03-04T20:44:30;4.60;;;1.40;;
14001;SDS011;7076;51.280;12.584;2023-03-04T20:49:35;6.90;;;1.67;;
14001;SDS011;7076;51.280;12.584;2023-03-04T20:54:38;7.93;;;1.80;;
14001;SDS011;7076;51.280;12.584;2023-03-04T20:59:40;3.17;;;1.00;;
14001;SDS011;7076;51.280;12.584;2023-03-04T21:04:45;5.33;;;1.47;;
14001;SDS011;7076;51.280;12.584;2023-03-04T21:09:47;3.97;;;1.30;;
14001;SDS011;7076;51.280;12.584;2023-03-04T21:14:50;4.90;;;1.70;;
14001;SDS011;7076;51.280;12.584;2023-03-04T21:19:54;6.60;;;1.10;;
14001;SDS011;7076;51.280;12.584;2023-03-04T21:24:57;5.47;;;1.20;;
14001;SDS011;7076;51.280;12.584;2023-03-04T21:30:00;6.20;;;1.30;;
14001;SDS011;7076;51.280;12.584;2023-03-04T21:35:05;5.43;;;1.30;;
14001;SDS011;7076;51.280;12.584;2023-03-04T21:40:08;5.83;;;1.73;;
14001;SDS011;7076;51.280;12.584;2023-03-04T21:45:12;6.93;;;1.50;;
14001;SDS011;7076;51.280;12.584;2023-03-04T21:50:16;5.40;;;1.03;;
14001;SDS011;7076;51.280;12.584;2023-03-04T21:55:19;2.33;;;0.90;;
14001;SDS011;7076;51.280;12.584;2023-03-04T22:00:22;5.57;;;1.70;;
14001;SDS011;7076;51.280;12.584;2023-03-04T22:05:26;5.50;;;1.93;;
14001;SDS011;7076;51.280;12.584;2023-03-04T22:10:36;6.83;;;2.07;;
14001;SDS011;7076;51.280;12.584;2023-03-04T22:15:41;7.70;;;2.10;;
14001;SDS011;7076;51.280;12.584;2023-03-04T22:20:45;5.50;;;1.90;;
14001;SDS011;7076;51.280;12.584;2023-03-04T22:25:48;6.87;;;1.73;;
14001;SDS011;7076;51.280;12.584;2023-03-04T22:30:51;8.57;;;2.23;;
14001;SDS011;7076;51.280;12.584;2023-03-04T22:35:55;6.10;;;1.87;;
14001;SDS011;7076;51.280;12.584;2023-03-04T22:40:58;8.43;;;2.23;;
14001;SDS011;7076;51.280;12.584;2023-03-04T22:46:03;7.10;;;1.87;;
14001;SDS011;7076;51.280;12.584;2023-03-04T22:51:14;2.97;;;1.20;;
14001;SDS011;7076;51.280;12.584;2023-03-04T22:56:17;5.80;;;1.37;;
14001;SDS011;7076;51.280;12.584;2023-03-04T23:01:20;5.53;;;0.90;;
14001;SDS011;7076;51.280;12.584;2023-03-04T23:06:24;8.80;;;1.40;;
14001;SDS011;7076;51.280;12.584;2023-03-04T23:11:30;3.73;;;1.20;;
14001;SDS011;7076;51.280;12.584;2023-03-04T23:16:35;4.07;;;1.13;;
14001;SDS011;7076;51.280;12.584;2023-03-04T23:21:44;9.07;;;1.53;;
14001;SDS011;7076;51.280;12.584;2023-03-04T23:26:46;3.70;;;1.10;;
14001;SDS011;7076;51.280;12.584;2023-03-04T23:31:49;4.20;;;1.77;;
14001;SDS011;7076;51.280;12.584;2023-03-04T23:36:53;6.63;;;1.33;;
14001;SDS011;7076;51.280;12.584;2023-03-04T23:41:56;3.80;;;1.00;;
14001;SDS011;7076;51.280;12.584;2023-03-04T23:46:59;3.80;;;1.30;;
14001;SDS011;7076;51.280;12.584;2023-03-04T23:52:04;3.13;;;1.03;;
14001;SDS011;7076;51.280;12.584;2023-03-04T23:57:07;5.10;;;1.17;;
